sensor_id;sensor_type;location;lat;lon;timestamp;pressure;altitude;pressure_sealevel;temperature;humidity
66703;BME280;60933;46.398;-63.798;2023-04-26T00:00:26;102452.84;;;4.15;76.60
66703;BME280;60933;46.398;-63.798;2023-04-26T00:02:53;102449.19;;;4.07;76.76
66703;BME280;60933;46.398;-63.798;2023-04-26T00:05:20;102446.47;;;4.01;77.10
66703;BME280;60933;46.398;-63.798;2023-04-26T00:07:46;102440.19;;;3.89;77.70
66703;BME280;60933;46.398;-63.798;2023-04-26T00:10:14;102450.47;;;3.92;77.71
66703;BME280;60933;46.398;-63.798;2023-04-26T00:12:41;102457.28;;;3.92;77.38
66703;BME280;60933;46.398;-63.798;2023-04-26T00:15:07;102456.28;;;3.87;77.59
66703;BME280;60933;46.398;-63.798;2023-04-26T00:17:34;102455.25;;;3.82;77.70
66703;BME280;60933;46.398;-63.798;2023-04-26T00:20:01;102456.81;;;3.76;77.58
66703;BME280;60933;46.398;-63.798;2023-04-26T00:22:28;102460.94;;;3.71;77.44
66703;BME280;60933;46.398;-63.798;2023-04-26T00:24:54;102462.44;;;3.66;77.43
66703;BME280;60933;46.398;-63.798;2023-04-26T00:27:20;102459.56;;;3.55;78.00
66703;BME280;60933;46.398;-63.798;2023-04-26T00:29:46;102460.91;;;3.44;78.77
66703;BME280;60933;46.398;-63.798;2023-04-26T00:32:12;102458.97;;;3.37;79.39
66703;BME280;60933;46.398;-63.798;2023-04-26T00:34:39;102455.31;;;3.28;79.47
66703;BME280;60933;46.398;-63.798;2023-04-26T00:37:05;102459.44;;;3.25;79.74
66703;BME280;60933;46.398;-63.798;2023-04-26T00:39:31;102456.75;;;3.20;79.58
66703;BME280;60933;46.398;-63.798;2023-04-26T00:41:57;102459.13;;;3.15;79.68
66703;BME280;60933;46.398;-63.798;2023-04-26T00:44:24;102466.50;;;3.08;79.59
66703;BME280;60933;46.398;-63.798;2023-04-26T00:46:52;102461.31;;;3.05;79.57
66703;BME280;60933;46.398;-63.798;2023-04-26T00:49:21;102467.94;;;2.99;79.12
66703;BME280;60933;46.398;-63.798;2023-04-26T00:51:47;102471.09;;;2.92;79.49
66703;BME280;60933;46.398;-63.798;2023-04-26T00:54:14;102463.13;;;2.83;80.09
66703;BME280;60933;46.398;-63.798;2023-04-26T00:56:41;102461.25;;;2.77;80.15
66703;BME280;60933;46.398;-63.798;2023-04-26T00:59:08;102466.06;;;2.69;80.32
66703;BME280;60933;46.398;-63.798;2023-04-26T01:01:34;102468.38;;;2.63;81.00
66703;BME280;60933;46.398;-63.798;2023-04-26T01:04:01;102474.13;;;2.58;81.02
66703;BME280;60933;46.398;-63.798;2023-04-26T01:06:34;102476.50;;;2.53;81.46
66703;BME280;60933;46.398;-63.798;2023-04-26T01:09:04;102477.19;;;2.47;81.75
66703;BME280;60933;46.398;-63.798;2023-04-26T01:11:36;102472.59;;;2.38;82.10
66703;BME280;60933;46.398;-63.798;2023-04-26T01:14:04;102473.34;;;2.36;82.63
66703;BME280;60933;46.398;-63.798;2023-04-26T01:16:31;102475.72;;;2.31;83.02
66703;BME280;60933;46.398;-63.798;2023-04-26T01:19:06;102470.53;;;2.28;83.12
66703;BME280;60933;46.398;-63.798;2023-04-26T01:21:34;102474.53;;;2.21;83.15
66703;BME280;60933;46.398;-63.798;2023-04-26T01:24:00;102472.69;;;2.17;83.43
66703;BME280;60933;46.398;-63.798;2023-04-26T01:26:26;102474.97;;;2.11;83.51
66703;BME280;60933;46.398;-63.798;2023-04-26T01:28:53;102468.00;;;2.05;83.73
66703;BME280;60933;46.398;-63.798;2023-04-26T01:31:19;102466.19;;;2.03;83.65
66703;BME280;60933;46.398;-63.798;2023-04-26T01:33:45;102459.09;;;1.96;83.83
66703;BME280;60933;46.398;-63.798;2023-04-26T01:36:11;102472.78;;;1.98;84.38
66703;BME280;60933;46.398;-63.798;2023-04-26T01:38:38;102474.34;;;1.94;84.10
66703;BME280;60933;46.398;-63.798;2023-04-26T01:41:04;102471.69;;;1.91;83.69
66703;BME280;60933;46.398;-63.798;2023-04-26T01:43:30;102477.44;;;1.87;83.86
66703;BME280;60933;46.398;-63.798;2023-04-26T01:45:56;102473.88;;;1.82;83.46
66703;BME280;60933;46.398;-63.798;2023-04-26T01:48:23;102469.44;;;1.78;83.41
66703;BME280;60933;46.398;-63.798;2023-04-26T01:50:49;102469.22;;;1.71;83.21
66703;BME280;60933;46.398;-63.798;2023-04-26T01:53:15;102468.13;;;1.65;83.13
66703;BME280;60933;46.398;-63.798;2023-04-26T01:55:41;102472.19;;;1.61;82.94
66703;BME280;60933;46.398;-63.798;2023-04-26T01:58:07;102472.03;;;1.56;82.79
66703;BME280;60933;46.398;-63.798;2023-04-26T02:00:33;102470.09;;;1.51;82.73
66703;BME280;60933;46.398;-63.798;2023-04-26T02:02:59;102467.31;;;1.45;82.49
66703;BME280;60933;46.398;-63.798;2023-04-26T02:05:25;102468.88;;;1.41;82.37
66703;BME280;60933;46.398;-63.798;2023-04-26T02:07:52;102460.91;;;1.33;82.36
66703;BME280;60933;46.398;-63.798;2023-04-26T02:10:18;102463.34;;;1.30;82.37
66703;BME280;60933;46.398;-63.798;2023-04-26T02:12:44;102457.13;;;1.23;82.37
66703;BME280;60933;46.398;-63.798;2023-04-26T02:15:10;102457.78;;;1.19;82.02
66703;BME280;60933;46.398;-63.798;2023-04-26T02:17:37;102455.13;;;1.16;82.36
66703;BME280;60933;46.398;-63.798;2023-04-26T02:20:04;102453.25;;;1.12;82.03
66703;BME280;60933;46.398;-63.798;2023-04-26T02:22:31;102450.59;;;1.09;82.04
66703;BME280;60933;46.398;-63.798;2023-04-26T02:24:58;102450.41;;;1.04;82.04
66703;BME280;60933;46.398;-63.798;2023-04-26T02:27:24;102450.00;;;0.95;82.12
66703;BME280;60933;46.398;-63.798;2023-04-26T02:29:50;102455.97;;;0.96;82.10
66703;BME280;60933;46.398;-63.798;2023-04-26T02:32:16;102450.69;;;0.91;81.69
66703;BME280;60933;46.398;-63.798;2023-04-26T02:34:43;102458.91;;;0.85;81.94
66703;BME280;60933;46.398;-63.798;2023-04-26T02:37:09;102457.03;;;0.81;81.69
66703;BME280;60933;46.398;-63.798;2023-04-26T02:39:36;102460.25;;;0.77;81.93
66703;BME280;60933;46.398;-63.798;2023-04-26T02:42:02;102460.06;;;0.72;81.61
66703;BME280;60933;46.398;-63.798;2023-04-26T02:44:29;102463.28;;;0.68;81.82
66703;BME280;60933;46.398;-63.798;2023-04-26T02:46:58;102457.03;;;0.61;81.53
66703;BME280;60933;46.398;-63.798;2023-04-26T02:49:24;102452.66;;;0.57;81.96
66703;BME280;60933;46.398;-63.798;2023-04-26T02:51:50;102461.88;;;0.55;81.26
66703;BME280;60933;46.398;-63.798;2023-04-26T02:54:16;102462.50;;;0.51;81.09
66703;BME280;60933;46.398;-63.798;2023-04-26T02:56:42;102459.75;;;0.46;81.72
66703;BME280;60933;46.398;-63.798;2023-04-26T02:59:08;102458.75;;;0.43;81.17
66703;BME280;60933;46.398;-63.798;2023-04-26T03:01:34;102453.56;;;0.40;80.84
66703;BME280;60933;46.398;-63.798;2023-04-26T03:04:00;102454.16;;;0.34;81.15
66703;BME280;60933;46.398;-63.798;2023-04-26T03:06:27;102454.81;;;0.30;80.79
66703;BME280;60933;46.398;-63.798;2023-04-26T03:08:54;102456.34;;;0.26;81.03
66703;BME280;60933;46.398;-63.798;2023-04-26T03:11:21;102453.44;;;0.19;81.01
66703;BME280;60933;46.398;-63.798;2023-04-26T03:13:47;102460.91;;;0.15;80.87
66703;BME280;60933;46.398;-63.798;2023-04-26T03:16:13;102464.13;;;0.11;80.82
66703;BME280;60933;46.398;-63.798;2023-04-26T03:18:39;102461.31;;;0.05;80.72
66703;BME280;60933;46.398;-63.798;2023-04-26T03:21:05;102461.91;;;-0.01;80.54
66703;BME280;60933;46.398;-63.798;2023-04-26T03:23:31;102470.19;;;-0.05;80.01
66703;BME280;60933;46.398;-63.798;2023-04-26T03:25:58;102470.09;;;-0.06;80.08
66703;BME280;60933;46.398;-63.798;2023-04-26T03:28:25;102477.59;;;-0.09;79.91
66703;BME280;60933;46.398;-63.798;2023-04-26T03:30:51;102472.28;;;-0.14;80.30
66703;BME280;60933;46.398;-63.798;2023-04-26T03:33:17;102466.03;;;-0.21;79.77
66703;BME280;60933;46.398;-63.798;2023-04-26T03:35:43;102469.31;;;-0.23;80.01
66703;BME280;60933;46.398;-63.798;2023-04-26T03:38:09;102470.03;;;-0.26;80.11
66703;BME280;60933;46.398;-63.798;2023-04-26T03:40:35;102472.34;;;-0.30;80.29
66703;BME280;60933;46.398;-63.798;2023-04-26T03:43:02;102466.25;;;-0.34;80.46
66703;BME280;60933;46.398;-63.798;2023-04-26T03:45:28;102462.63;;;-0.39;79.94
66703;BME280;60933;46.398;-63.798;2023-04-26T03:47:54;102467.56;;;-0.42;80.58
66703;BME280;60933;46.398;-63.798;2023-04-26T03:50:21;102463.13;;;-0.46;80.10
66703;BME280;60933;46.398;-63.798;2023-04-26T03:52:47;102469.72;;;-0.50;79.98
66703;BME280;60933;46.398;-63.798;2023-04-26T03:55:13;102466.19;;;-0.54;79.95
66703;BME280;60933;46.398;-63.798;2023-04-26T03:57:40;102467.66;;;-0.57;80.17
66703;BME280;60933;46.398;-63.798;2023-04-26T04:00:06;102471.66;;;-0.62;79.87
66703;BME280;60933;46.398;-63.798;2023-04-26T04:02:37;102468.97;;;-0.66;80.35
66703;BME280;60933;46.398;-63.798;2023-04-26T04:05:04;102464.47;;;-0.71;80.24
66703;BME280;60933;46.398;-63.798;2023-04-26T04:07:30;102473.72;;;-0.72;80.15
66703;BME280;60933;46.398;-63.798;2023-04-26T04:09:58;102477.00;;;-0.74;80.26
66703;BME280;60933;46.398;-63.798;2023-04-26T04:12:24;102471.69;;;-0.79;79.97
66703;BME280;60933;46.398;-63.798;2023-04-26T04:14:50;102475.72;;;-0.83;80.27
66703;BME280;60933;46.398;-63.798;2023-04-26T04:17:17;102474.81;;;-0.85;79.98
66703;BME280;60933;46.398;-63.798;2023-04-26T04:19:44;102482.19;;;-0.89;79.94
66703;BME280;60933;46.398;-63.798;2023-04-26T04:22:10;102481.22;;;-0.91;80.03
66703;BME280;60933;46.398;-63.798;2023-04-26T04:24:36;102477.59;;;-0.97;79.37
66703;BME280;60933;46.398;-63.798;2023-04-26T04:27:03;102490.16;;;-0.98;78.47
66703;BME280;60933;46.398;-63.798;2023-04-26T04:29:29;102495.09;;;-1.01;78.75
66703;BME280;60933;46.398;-63.798;2023-04-26T04:31:56;102486.72;;;-1.00;78.90
66703;BME280;60933;46.398;-63.798;2023-04-26T04:34:22;102489.16;;;-1.02;78.68
66703;BME280;60933;46.398;-63.798;2023-04-26T04:36:51;102487.41;;;-1.03;78.60
66703;BME280;60933;46.398;-63.798;2023-04-26T04:39:17;102485.69;;;-1.04;78.48
66703;BME280;60933;46.398;-63.798;2023-04-26T04:41:43;102486.72;;;-1.00;79.09
66703;BME280;60933;46.398;-63.798;2023-04-26T04:44:17;102482.25;;;-1.04;78.78
66703;BME280;60933;46.398;-63.798;2023-04-26T04:46:43;102481.31;;;-1.06;78.29
66703;BME280;60933;46.398;-63.798;2023-04-26T04:49:10;102481.47;;;-1.03;78.88
66703;BME280;60933;46.398;-63.798;2023-04-26T04:51:37;102483.22;;;-1.02;78.20
66703;BME280;60933;46.398;-63.798;2023-04-26T04:54:15;102475.63;;;-1.02;78.46
66703;BME280;60933;46.398;-63.798;2023-04-26T04:56:42;102481.63;;;-1.00;77.82
66703;BME280;60933;46.398;-63.798;2023-04-26T04:59:09;102478.44;;;-0.96;78.37
66703;BME280;60933;46.398;-63.798;2023-04-26T05:01:35;102472.72;;;-0.92;79.62
66703;BME280;60933;46.398;-63.798;2023-04-26T05:04:03;102465.28;;;-0.89;79.76
66703;BME280;60933;46.398;-63.798;2023-04-26T05:06:30;102463.78;;;-0.85;79.92
66703;BME280;60933;46.398;-63.798;2023-04-26T05:08:59;102458.78;;;-0.84;79.71
66703;BME280;60933;46.398;-63.798;2023-04-26T05:11:26;102460.38;;;-0.86;78.75
66703;BME280;60933;46.398;-63.798;2023-04-26T05:13:52;102459.72;;;-0.82;78.87
66703;BME280;60933;46.398;-63.798;2023-04-26T05:16:19;102459.66;;;-0.83;78.79
66703;BME280;60933;46.398;-63.798;2023-04-26T05:18:45;102452.28;;;-0.78;78.14
66703;BME280;60933;46.398;-63.798;2023-04-26T05:21:11;102450.59;;;-0.78;78.51
66703;BME280;60933;46.398;-63.798;2023-04-26T05:23:37;102461.78;;;-0.74;78.22
66703;BME280;60933;46.398;-63.798;2023-04-26T05:26:04;102457.66;;;-0.72;78.77
66703;BME280;60933;46.398;-63.798;2023-04-26T05:28:30;102453.59;;;-0.69;78.91
66703;BME280;60933;46.398;-63.798;2023-04-26T05:30:57;102454.56;;;-0.67;79.01
66703;BME280;60933;46.398;-63.798;2023-04-26T05:33:24;102448.69;;;-0.66;79.46
66703;BME280;60933;46.398;-63.798;2023-04-26T05:35:50;102456.66;;;-0.58;79.87
66703;BME280;60933;46.398;-63.798;2023-04-26T05:38:19;102450.78;;;-0.57;79.20
66703;BME280;60933;46.398;-63.798;2023-04-26T05:40:46;102463.63;;;-0.54;79.50
66703;BME280;60933;46.398;-63.798;2023-04-26T05:43:15;102462.03;;;-0.52;79.43
66703;BME280;60933;46.398;-63.798;2023-04-26T05:46:08;102462.97;;;-0.50;79.25
66703;BME280;60933;46.398;-63.798;2023-04-26T05:48:34;102446.00;;;-0.51;78.72
66703;BME280;60933;46.398;-63.798;2023-04-26T05:51:00;102462.31;;;-0.45;78.67
66703;BME280;60933;46.398;-63.798;2023-04-26T05:53:27;102450.59;;;-0.43;78.39
66703;BME280;60933;46.398;-63.798;2023-04-26T05:55:53;102456.75;;;-0.38;78.40
66703;BME280;60933;46.398;-63.798;2023-04-26T05:58:19;102452.63;;;-0.36;78.69
66703;BME280;60933;46.398;-63.798;2023-04-26T06:00:45;102445.97;;;-0.34;78.90
66703;BME280;60933;46.398;-63.798;2023-04-26T06:03:12;102430.44;;;-0.40;78.59
66703;BME280;60933;46.398;-63.798;2023-04-26T06:05:38;102446.31;;;-0.26;79.13
66703;BME280;60933;46.398;-63.798;2023-04-26T06:08:04;102442.19;;;-0.24;79.23
66703;BME280;60933;46.398;-63.798;2023-04-26T06:10:31;102438.84;;;-0.23;79.92
66703;BME280;60933;46.398;-63.798;2023-04-26T06:12:57;102441.53;;;-0.20;79.94
66703;BME280;60933;46.398;-63.798;2023-04-26T06:15:23;102437.31;;;-0.20;79.21
66703;BME280;60933;46.398;-63.798;2023-04-26T06:17:49;102427.91;;;-0.22;79.25
66703;BME280;60933;46.398;-63.798;2023-04-26T06:20:15;102439.84;;;-0.20;79.68
66703;BME280;60933;46.398;-63.798;2023-04-26T06:22:41;102430.38;;;-0.24;79.51
66703;BME280;60933;46.398;-63.798;2023-04-26T06:25:07;102434.78;;;-0.20;80.85
66703;BME280;60933;46.398;-63.798;2023-04-26T06:27:34;102435.63;;;-0.19;80.88
66703;BME280;60933;46.398;-63.798;2023-04-26T06:30:00;102433.19;;;-0.18;81.29
66703;BME280;60933;46.398;-63.798;2023-04-26T06:32:26;102431.44;;;-0.19;81.24
66703;BME280;60933;46.398;-63.798;2023-04-26T06:34:52;102417.53;;;-0.27;82.33
66703;BME280;60933;46.398;-63.798;2023-04-26T06:37:19;102430.50;;;-0.21;82.95
66703;BME280;60933;46.398;-63.798;2023-04-26T06:39:45;102426.09;;;-0.25;82.59
66703;BME280;60933;46.398;-63.798;2023-04-26T06:42:11;102433.56;;;-0.28;82.00
66703;BME280;60933;46.398;-63.798;2023-04-26T06:44:37;102427.41;;;-0.33;82.11
66703;BME280;60933;46.398;-63.798;2023-04-26T06:47:03;102433.91;;;-0.38;81.95
66703;BME280;60933;46.398;-63.798;2023-04-26T06:49:34;102437.09;;;-0.42;81.17
66703;BME280;60933;46.398;-63.798;2023-04-26T06:52:00;102433.56;;;-0.46;80.97
66703;BME280;60933;46.398;-63.798;2023-04-26T06:54:28;102435.13;;;-0.48;82.04
66703;BME280;60933;46.398;-63.798;2023-04-26T06:56:54;102435.00;;;-0.51;82.07
66703;BME280;60933;46.398;-63.798;2023-04-26T06:59:21;102428.91;;;-0.55;81.55
66703;BME280;60933;46.398;-63.798;2023-04-26T07:01:47;102430.34;;;-0.60;82.15
66703;BME280;60933;46.398;-63.798;2023-04-26T07:04:13;102427.81;;;-0.60;83.03
66703;BME280;60933;46.398;-63.798;2023-04-26T07:06:40;102424.13;;;-0.67;82.46
66703;BME280;60933;46.398;-63.798;2023-04-26T07:09:06;102434.34;;;-0.65;83.32
66703;BME280;60933;46.398;-63.798;2023-04-26T07:11:32;102437.66;;;-0.66;83.57
66703;BME280;60933;46.398;-63.798;2023-04-26T07:13:58;102436.63;;;-0.70;83.69
66703;BME280;60933;46.398;-63.798;2023-04-26T07:16:25;102436.50;;;-0.73;83.92
66703;BME280;60933;46.398;-63.798;2023-04-26T07:18:51;102433.59;;;-0.81;84.00
66703;BME280;60933;46.398;-63.798;2023-04-26T07:21:18;102438.59;;;-0.82;84.08
66703;BME280;60933;46.398;-63.798;2023-04-26T07:23:44;102438.34;;;-0.87;83.80
66703;BME280;60933;46.398;-63.798;2023-04-26T07:26:10;102440.81;;;-0.88;83.73
66703;BME280;60933;46.398;-63.798;2023-04-26T07:28:36;102440.44;;;-0.96;83.31
66703;BME280;60933;46.398;-63.798;2023-04-26T07:31:03;102452.94;;;-0.99;83.51
66703;BME280;60933;46.398;-63.798;2023-04-26T07:33:29;102444.25;;;-1.04;82.94
66703;BME280;60933;46.398;-63.798;2023-04-26T07:35:57;102450.88;;;-1.06;83.54
66703;BME280;60933;46.398;-63.798;2023-04-26T07:38:26;102448.13;;;-1.11;83.84
66703;BME280;60933;46.398;-63.798;2023-04-26T07:40:52;102442.03;;;-1.15;83.86
66703;BME280;60933;46.398;-63.798;2023-04-26T07:43:19;102436.66;;;-1.21;83.68
66703;BME280;60933;46.398;-63.798;2023-04-26T07:45:45;102436.50;;;-1.24;83.63
66703;BME280;60933;46.398;-63.798;2023-04-26T07:48:12;102437.22;;;-1.26;83.70
66703;BME280;60933;46.398;-63.798;2023-04-26T07:50:38;102441.41;;;-1.27;84.22
66703;BME280;60933;46.398;-63.798;2023-04-26T07:53:03;102440.56;;;-1.28;84.77
66703;BME280;60933;46.398;-63.798;2023-04-26T07:55:30;102445.44;;;-1.31;85.03
66703;BME280;60933;46.398;-63.798;2023-04-26T07:57:56;102442.66;;;-1.35;85.04
66703;BME280;60933;46.398;-63.798;2023-04-26T08:00:24;102446.00;;;-1.36;84.90
66703;BME280;60933;46.398;-63.798;2023-04-26T08:02:50;102445.13;;;-1.37;84.49
66703;BME280;60933;46.398;-63.798;2023-04-26T08:05:16;102445.06;;;-1.38;84.99
66703;BME280;60933;46.398;-63.798;2023-04-26T08:07:43;102445.84;;;-1.39;84.90
66703;BME280;60933;46.398;-63.798;2023-04-26T08:10:09;102450.13;;;-1.38;84.38
66703;BME280;60933;46.398;-63.798;2023-04-26T08:12:36;102452.50;;;-1.41;83.77
66703;BME280;60933;46.398;-63.798;2023-04-26T08:15:04;102448.28;;;-1.41;83.33
66703;BME280;60933;46.398;-63.798;2023-04-26T08:17:30;102445.84;;;-1.39;82.95
66703;BME280;60933;46.398;-63.798;2023-04-26T08:19:57;102445.06;;;-1.38;82.90
66703;BME280;60933;46.398;-63.798;2023-04-26T08:22:23;102439.84;;;-1.41;82.25
66703;BME280;60933;46.398;-63.798;2023-04-26T08:24:52;102442.53;;;-1.38;82.04
66703;BME280;60933;46.398;-63.798;2023-04-26T08:27:19;102444.25;;;-1.37;81.83
66703;BME280;60933;46.398;-63.798;2023-04-26T08:29:45;102433.19;;;-1.39;81.67
66703;BME280;60933;46.398;-63.798;2023-04-26T08:32:12;102442.06;;;-1.31;82.16
66703;BME280;60933;46.398;-63.798;2023-04-26T08:34:38;102437.38;;;-1.23;83.96
66703;BME280;60933;46.398;-63.798;2023-04-26T08:37:07;102433.31;;;-1.20;83.86
66703;BME280;60933;46.398;-63.798;2023-04-26T08:39:33;102446.06;;;-1.18;83.88
66703;BME280;60933;46.398;-63.798;2023-04-26T08:42:14;102438.25;;;-1.23;83.04
66703;BME280;60933;46.398;-63.798;2023-04-26T08:44:42;102441.72;;;-1.21;82.52
66703;BME280;60933;46.398;-63.798;2023-04-26T08:47:37;102450.28;;;-1.19;82.23
66703;BME280;60933;46.398;-63.798;2023-04-26T08:50:05;102463.19;;;-1.14;82.14
66703;BME280;60933;46.398;-63.798;2023-04-26T08:52:32;102460.72;;;-1.13;82.34
66703;BME280;60933;46.398;-63.798;2023-04-26T08:55:00;102464.28;;;-1.09;82.24
66703;BME280;60933;46.398;-63.798;2023-04-26T08:57:30;102458.66;;;-1.03;81.33
66703;BME280;60933;46.398;-63.798;2023-04-26T08:59:58;102458.00;;;-0.99;81.47
66703;BME280;60933;46.398;-63.798;2023-04-26T09:02:24;102463.31;;;-0.94;80.98
66703;BME280;60933;46.398;-63.798;2023-04-26T09:04:50;102455.94;;;-0.90;82.13
66703;BME280;60933;46.398;-63.798;2023-04-26T09:07:29;102458.09;;;-0.81;82.29
66703;BME280;60933;46.398;-63.798;2023-04-26T09:09:57;102451.41;;;-0.79;81.65
66703;BME280;60933;46.398;-63.798;2023-04-26T09:12:24;102455.91;;;-0.73;81.82
66703;BME280;60933;46.398;-63.798;2023-04-26T09:14:50;102457.81;;;-0.69;81.26
66703;BME280;60933;46.398;-63.798;2023-04-26T09:17:50;102459.13;;;-0.59;82.55
66703;BME280;60933;46.398;-63.798;2023-04-26T09:22:44;102467.25;;;-0.49;83.44
66703;BME280;60933;46.398;-63.798;2023-04-26T09:25:11;102473.56;;;-0.40;84.33
66703;BME280;60933;46.398;-63.798;2023-04-26T09:27:41;102478.16;;;-0.33;84.54
66703;BME280;60933;46.398;-63.798;2023-04-26T09:30:14;102481.94;;;-0.25;85.56
66703;BME280;60933;46.398;-63.798;2023-04-26T09:32:59;102482.38;;;-0.15;86.57
66703;BME280;60933;46.398;-63.798;2023-04-26T09:35:36;102497.28;;;-0.04;87.22
66703;BME280;60933;46.398;-63.798;2023-04-26T09:38:14;102496.72;;;0.02;86.95
66703;BME280;60933;46.398;-63.798;2023-04-26T09:40:48;102503.97;;;0.12;87.98
66703;BME280;60933;46.398;-63.798;2023-04-26T09:43:16;102504.25;;;0.19;88.40
66703;BME280;60933;46.398;-63.798;2023-04-26T09:48:21;102503.47;;;0.20;88.55
66703;BME280;60933;46.398;-63.798;2023-04-26T09:51:18;102505.41;;;0.25;88.49
66703;BME280;60933;46.398;-63.798;2023-04-26T09:53:48;102517.59;;;0.33;88.42
66703;BME280;60933;46.398;-63.798;2023-04-26T09:56:16;102511.72;;;0.34;88.72
66703;BME280;60933;46.398;-63.798;2023-04-26T10:01:16;102520.63;;;0.43;88.22
66703;BME280;60933;46.398;-63.798;2023-04-26T10:03:42;102523.38;;;0.48;88.17
66703;BME280;60933;46.398;-63.798;2023-04-26T10:06:09;102527.84;;;0.54;88.11
66703;BME280;60933;46.398;-63.798;2023-04-26T10:08:37;102524.81;;;0.61;88.64
66703;BME280;60933;46.398;-63.798;2023-04-26T10:11:03;102523.34;;;0.66;88.53
66703;BME280;60933;46.398;-63.798;2023-04-26T10:13:32;102531.28;;;0.74;88.87
66703;BME280;60933;46.398;-63.798;2023-04-26T10:16:01;102523.75;;;0.75;88.75
66703;BME280;60933;46.398;-63.798;2023-04-26T10:18:28;102534.25;;;0.83;88.98
66703;BME280;60933;46.398;-63.798;2023-04-26T10:20:57;102529.38;;;0.88;88.39
66703;BME280;60933;46.398;-63.798;2023-04-26T10:23:24;102535.59;;;0.94;88.25
66703;BME280;60933;46.398;-63.798;2023-04-26T10:25:52;102533.25;;;0.99;87.98
66703;BME280;60933;46.398;-63.798;2023-04-26T10:31:10;102533.78;;;1.12;88.39
66703;BME280;60933;46.398;-63.798;2023-04-26T10:33:36;102535.03;;;1.21;88.38
66703;BME280;60933;46.398;-63.798;2023-04-26T10:36:04;102539.53;;;1.27;88.12
66703;BME280;60933;46.398;-63.798;2023-04-26T10:38:31;102540.72;;;1.35;88.25
66703;BME280;60933;46.398;-63.798;2023-04-26T10:41:29;102542.78;;;1.44;88.63
66703;BME280;60933;46.398;-63.798;2023-04-26T10:43:56;102549.94;;;1.53;88.77
66703;BME280;60933;46.398;-63.798;2023-04-26T10:46:35;102537.47;;;1.59;89.26
66703;BME280;60933;46.398;-63.798;2023-04-26T10:49:12;102535.16;;;1.65;89.96
66703;BME280;60933;46.398;-63.798;2023-04-26T10:51:39;102538.94;;;1.75;89.94
66703;BME280;60933;46.398;-63.798;2023-04-26T10:54:06;102535.72;;;1.79;89.77
66703;BME280;60933;46.398;-63.798;2023-04-26T10:59:18;102536.41;;;1.96;90.26
66703;BME280;60933;46.398;-63.798;2023-04-26T11:01:44;102540.06;;;2.03;90.34
66703;BME280;60933;46.398;-63.798;2023-04-26T11:04:11;102540.31;;;2.09;90.35
66703;BME280;60933;46.398;-63.798;2023-04-26T11:06:51;102525.25;;;2.15;90.44
66703;BME280;60933;46.398;-63.798;2023-04-26T11:14:33;102521.91;;;2.39;90.66
66703;BME280;60933;46.398;-63.798;2023-04-26T11:17:05;102522.31;;;2.50;90.34
66703;BME280;60933;46.398;-63.798;2023-04-26T11:19:33;102524.38;;;2.60;90.35
66703;BME280;60933;46.398;-63.798;2023-04-26T11:21:59;102521.25;;;2.67;90.27
66703;BME280;60933;46.398;-63.798;2023-04-26T11:24:27;102531.03;;;2.79;90.18
66703;BME280;60933;46.398;-63.798;2023-04-26T11:26:55;102527.94;;;2.88;89.82
66703;BME280;60933;46.398;-63.798;2023-04-26T11:29:24;102524.81;;;2.97;90.22
66703;BME280;60933;46.398;-63.798;2023-04-26T11:31:55;102529.41;;;3.06;89.63
66703;BME280;60933;46.398;-63.798;2023-04-26T11:36:57;102529.16;;;3.24;89.64
66703;BME280;60933;46.398;-63.798;2023-04-26T11:39:23;102531.13;;;3.31;89.46
66703;BME280;60933;46.398;-63.798;2023-04-26T11:41:49;102527.13;;;3.39;89.19
66703;BME280;60933;46.398;-63.798;2023-04-26T11:44:19;102526.56;;;3.48;88.83
66703;BME280;60933;46.398;-63.798;2023-04-26T11:46:48;102528.50;;;3.55;88.48
66703;BME280;60933;46.398;-63.798;2023-04-26T11:49:15;102534.84;;;3.67;88.03
66703;BME280;60933;46.398;-63.798;2023-04-26T11:51:42;102534.31;;;3.77;87.98
66703;BME280;60933;46.398;-63.798;2023-04-26T11:54:09;102530.38;;;3.87;88.00
66703;BME280;60933;46.398;-63.798;2023-04-26T11:56:36;102530.59;;;3.94;87.15
66703;BME280;60933;46.398;-63.798;2023-04-26T11:59:02;102536.72;;;4.00;86.36
66703;BME280;60933;46.398;-63.798;2023-04-26T12:01:29;102538.66;;;4.07;85.99
66703;BME280;60933;46.398;-63.798;2023-04-26T12:03:56;102532.19;;;4.18;85.57
66703;BME280;60933;46.398;-63.798;2023-04-26T12:06:49;102526.34;;;4.22;84.81
66703;BME280;60933;46.398;-63.798;2023-04-26T12:09:15;102539.59;;;4.38;84.78
66703;BME280;60933;46.398;-63.798;2023-04-26T12:12:07;102536.44;;;4.47;84.29
66703;BME280;60933;46.398;-63.798;2023-04-26T12:14:37;102529.16;;;4.60;83.63
66703;BME280;60933;46.398;-63.798;2023-04-26T12:17:05;102533.72;;;4.71;82.95
66703;BME280;60933;46.398;-63.798;2023-04-26T12:19:40;102532.25;;;4.79;81.20
66703;BME280;60933;46.398;-63.798;2023-04-26T12:22:07;102527.16;;;4.81;80.20
66703;BME280;60933;46.398;-63.798;2023-04-26T12:24:34;102538.50;;;4.90;80.31
66703;BME280;60933;46.398;-63.798;2023-04-26T12:27:04;102536.97;;;4.96;80.97
66703;BME280;60933;46.398;-63.798;2023-04-26T12:29:34;102537.22;;;5.05;80.28
66703;BME280;60933;46.398;-63.798;2023-04-26T12:32:01;102539.88;;;5.10;79.00
66703;BME280;60933;46.398;-63.798;2023-04-26T12:34:27;102538.34;;;5.15;78.62
66703;BME280;60933;46.398;-63.798;2023-04-26T12:36:53;102547.03;;;5.21;78.51
66703;BME280;60933;46.398;-63.798;2023-04-26T12:39:20;102536.09;;;5.27;76.46
66703;BME280;60933;46.398;-63.798;2023-04-26T12:41:46;102541.41;;;5.35;76.35
66703;BME280;60933;46.398;-63.798;2023-04-26T12:44:12;102544.09;;;5.39;77.15
66703;BME280;60933;46.398;-63.798;2023-04-26T12:46:39;102538.34;;;5.48;78.27
66703;BME280;60933;46.398;-63.798;2023-04-26T12:49:05;102533.50;;;5.61;78.63
66703;BME280;60933;46.398;-63.798;2023-04-26T12:51:32;102528.69;;;5.73;78.26
66703;BME280;60933;46.398;-63.798;2023-04-26T12:53:58;102530.50;;;5.77;78.00
66703;BME280;60933;46.398;-63.798;2023-04-26T12:56:24;102528.94;;;5.84;77.71
66703;BME280;60933;46.398;-63.798;2023-04-26T12:58:51;102524.91;;;5.94;77.16